Des Allemands, Louisiana
Current Conditions -  °F | °C
As of 7:53 AM on Sunday 23 Nov 2014 (Local Time) from KMSY Reporting Station
Light Rain Light Rain  
Wind Chill: 65°   Ceiling: 9000
Heat Index: 65°   Visibility: 10mi
Dew Point: 62°   Wind: 14mph
Humidity: 90%   Direction: 200°SSW
Pressure: 29.73"   Gusts: NA
Location:  29.82°N, 90.48°W
Report Text: KMSY 231353Z 20012KT 10SM -RA FEW035 BKN090 OVC120 18/17 A2973 RMK AO2 SLP070 P0002 T01830167
Loading
Personal Weather Stations






























Interactive Weather Map New forecast layout! Learn more

10-Day Weather Forecast

Advertisements
Track Severe Weather on mobile